メインページ
METAR-TAF:

METAR-TAF

空港 :

プリンストン, ブリティッシュコロンビア州, カナダ

緯度: 49-28N, 経度: 120-31W, 海抜: 700m

現時点の気象観測

当レポートは1時間39分前の01:00(UTC)に作成
無風
気温 1°C
湿度 86%
気圧 1012 hPa
視程: 16.1km
高度1500ftの曇り

METAR: CYDC 070100Z 00000KT 10SM OVC015 01/M01 A2989 RMK SC8 LAST STFD OB/NEXT 07 1500UTC SLP147

時間: 18:39 (02:39 UTC)


TAF: 見つかりません

4,000以上の空港の気象観測と天気予報(METAR報とTAF報)

利用可能な観測所は地図上に黄色い丸と赤い丸で示す。

丸の上にカーソルを重ねると観測所名を参照できる。

次にクリックすると気象観測と天気予報を参照できる。

マップの切り替え:黒色「×」印の緑ボタンをクリックして拡大、「-」印の緑ボタンをクリックして縮小、緑色の三角印をクリックして隣りの地図に切り替え


METAR-TAF: